Time;durP1;ratioP1;P1;durP2;ratioP2;P2;SDS_P1;SDS_P2;PMS_P1;PMS_P2;Temp;Humidity;BMP_temperature;BMP_pressure;BME280_temperature;BME280_humidity;BME280_pressure;Samples;Min_cycle;Max_cycle;Signal;HPM_P1;HPM_P2
2021/11/09 00:02:03;;;;;;;;;;;;;;;6.34;59.53;100522.78;4486032;32;20781;-84
2021/11/09 00:04:35;;;;;;;;;;;;;;;6.35;59.54;100524.50;4484744;32;19998;-85
2021/11/09 00:07:08;;;;;;;;;;;;;;;6.33;59.53;100515.91;4484671;32;19988;-85
2021/11/09 00:09:54;;;;;;;;;;;;;;;6.50;59.54;100523.62;4484909;32;20348;-84
2021/11/09 00:12:18;;;;;;;;;;;;;;;6.43;59.54;100522.78;4485659;32;20623;-83
2021/11/09 00:14:43;;;;;;;;;;;;;;;6.40;59.53;100511.59;4471205;32;27541;-86
2021/11/09 00:17:12;;;;;;;;;;;;;;;6.54;59.54;100516.72;4472519;32;29969;-86
2021/11/09 00:19:37;;;;;;;;;;;;;;;6.40;59.53;100512.47;4474273;32;20004;-85
2021/11/09 00:22:02;;;;;;;;;;;;;;;6.41;59.53;100514.19;4473793;32;27071;-86
2021/11/09 00:24:27;;;;;;;;;;;;;;;6.28;59.53;100517.66;4495845;32;19988;-85
2021/11/09 00:26:53;;;;;;;;;;;;;;;6.38;59.53;100519.34;4472711;32;25920;-85
2021/11/09 00:29:18;;;;;;;;;;;;;;;6.44;59.54;100521.06;4486372;32;19996;-86
2021/11/09 00:31:44;;;;;;;;;;;;;;;6.38;59.53;100519.34;4473305;32;19996;-86
2021/11/09 00:34:09;;;;;;;;;;;;;;;6.24;59.52;100509.91;4474209;32;20036;-86
2021/11/09 00:36:35;;;;;;;;;;;;;;;6.22;59.53;100519.41;4473866;32;20003;-86
2021/11/09 00:39:00;;;;;;;;;;;;;;;6.38;59.53;100514.16;4473729;32;19996;-87
2021/11/09 00:41:25;;;;;;;;;;;;;;;6.37;59.53;100516.75;4473820;32;19990;-86
2021/11/09 00:43:51;;;;;;;;;;;;;;;6.41;59.53;100521.06;4486911;32;20320;-86
2021/11/09 00:46:16;;;;;;;;;;;;;;;6.29;59.54;100516.78;4473432;32;20158;-85
2021/11/09 00:48:41;;;;;;;;;;;;;;;6.30;59.53;100526.25;4473813;32;20340;-86
2021/11/09 00:51:06;;;;;;;;;;;;;;;6.37;59.54;100524.50;4473582;32;20003;-86
2021/11/09 00:53:31;;;;;;;;;;;;;;;6.43;59.54;100534.84;4473242;32;19972;-87
2021/11/09 00:55:57;;;;;;;;;;;;;;;6.41;59.53;100531.41;4472874;32;28372;-85
2021/11/09 00:58:22;;;;;;;;;;;;;;;6.61;59.55;100544.28;4473722;32;20011;-86
2021/11/09 01:00:47;;;;;;;;;;;;;;;6.30;59.53;100540.91;4473538;32;19992;-85
2021/11/09 01:03:13;;;;;;;;;;;;;;;6.41;59.53;100540.03;4473457;32;20253;-87
2021/11/09 01:05:38;;;;;;;;;;;;;;;6.33;59.53;100539.19;4473641;32;19985;-87
2021/11/09 01:08:05;;;;;;;;;;;;;;;6.25;59.52;100540.94;4486085;32;22781;-87
2021/11/09 01:10:32;;;;;;;;;;;;;;;6.32;59.53;100539.19;4473196;32;20749;-86
2021/11/09 01:12:57;;;;;;;;;;;;;;;6.36;59.53;100541.75;4471773;32;19977;-85
2021/11/09 01:15:23;;;;;;;;;;;;;;;6.50;59.53;100540.88;4471355;32;24791;-85
2021/11/09 01:17:49;;;;;;;;;;;;;;;6.45;59.54;100541.75;4471783;32;19996;-84
2021/11/09 01:20:15;;;;;;;;;;;;;;;6.41;59.53;100537.44;4484461;32;19979;-85
2021/11/09 01:22:41;;;;;;;;;;;;;;;6.34;59.53;100552.97;4471223;32;19995;-84
2021/11/09 01:25:07;;;;;;;;;;;;;;;6.36;59.53;100557.25;4485569;32;20051;-86
2021/11/09 01:27:32;;;;;;;;;;;;;;;6.43;59.52;100558.13;4472307;32;20007;-86
2021/11/09 01:29:57;;;;;;;;;;;;;;;6.24;59.52;100562.47;4484128;32;20433;-85
2021/11/09 01:32:22;;;;;;;;;;;;;;;6.13;59.51;100559.03;4471825;32;20353;-85
2021/11/09 01:34:48;;;;;;;;;;;;;;;6.14;59.52;100555.56;4484521;32;20007;-84
2021/11/09 01:37:13;;;;;;;;;;;;;;;6.32;59.53;100563.31;4486696;32;20000;-86
2021/11/09 01:39:38;;;;;;;;;;;;;;;6.08;59.52;100563.34;4485502;32;19983;-86
2021/11/09 01:42:04;;;;;;;;;;;;;;;6.18;59.52;100556.47;4484986;32;26688;-86
2021/11/09 01:44:30;;;;;;;;;;;;;;;6.06;59.52;100565.94;4485566;32;20027;-86
2021/11/09 01:46:55;;;;;;;;;;;;;;;6.00;59.51;100565.09;4486539;32;20329;-85
2021/11/09 01:49:20;;;;;;;;;;;;;;;5.89;59.50;100554.69;4471933;32;26596;-86
2021/11/09 01:51:45;;;;;;;;;;;;;;;5.84;59.51;100559.88;4485588;32;20224;-86
2021/11/09 01:54:10;;;;;;;;;;;;;;;5.91;59.51;100559.91;4486388;32;19992;-84
2021/11/09 01:56:36;;;;;;;;;;;;;;;5.89;59.50;100559.88;4491518;32;20023;-86
2021/11/09 01:59:01;;;;;;;;;;;;;;;5.62;59.49;100572.78;4481874;32;20011;-84
2021/11/09 02:01:27;;;;;;;;;;;;;;;5.49;59.48;100570.19;4485024;32;19992;-85
2021/11/09 02:03:53;;;;;;;;;;;;;;;5.33;59.48;100570.13;4485011;32;19995;-86
2021/11/09 02:06:18;;;;;;;;;;;;;;;5.49;59.48;100572.78;4472044;32;19996;-86
2021/11/09 02:08:43;;;;;;;;;;;;;;;5.60;59.48;100575.34;4485183;32;19980;-86
2021/11/09 02:11:09;;;;;;;;;;;;;;;5.58;59.49;100574.50;4471378;32;24996;-85
2021/11/09 02:13:34;;;;;;;;;;;;;;;5.40;59.48;100572.72;4485140;32;20469;-86
2021/11/09 02:15:59;;;;;;;;;;;;;;;5.33;59.48;100585.63;4473178;32;20030;-86
2021/11/09 02:18:25;;;;;;;;;;;;;;;5.35;59.48;100589.94;4472878;32;28431;-86
2021/11/09 02:20:59;;;;;;;;;;;;;;;5.27;59.47;100593.37;4487514;32;20230;-86
2021/11/09 02:23:25;;;;;;;;;;;;;;;5.29;59.47;100594.22;4487467;32;19980;-87
2021/11/09 02:25:50;;;;;;;;;;;;;;;5.30;59.46;100594.22;4487617;32;20014;-87
2021/11/09 02:28:16;;;;;;;;;;;;;;;5.36;59.47;100585.63;4487119;32;20049;-86
2021/11/09 02:30:41;;;;;;;;;;;;;;;5.32;59.48;100597.69;4473925;32;19977;-86
2021/11/09 02:33:07;;;;;;;;;;;;;;;5.47;59.48;100586.53;4486903;31;19973;-87
2021/11/09 02:35:33;;;;;;;;;;;;;;;5.38;59.47;100601.97;4488104;31;20016;-87
2021/11/09 02:37:58;;;;;;;;;;;;;;;5.32;59.48;100609.72;4488164;32;20267;-88
2021/11/09 02:40:23;;;;;;;;;;;;;;;5.37;59.47;100610.59;4488650;32;19988;-87
2021/11/09 02:42:50;;;;;;;;;;;;;;;5.19;59.47;100607.09;4474491;32;20004;-87
2021/11/09 02:45:22;;;;;;;;;;;;;;;5.28;59.47;100603.69;4474871;32;19992;-87
2021/11/09 02:47:51;;;;;;;;;;;;;;;4.99;59.45;100607.88;4487943;32;20338;-88
2021/11/09 02:50:19;;;;;;;;;;;;;;;5.04;59.46;100616.50;4475367;32;19996;-88
2021/11/09 02:53:08;;;;;;;;;;;;;;;5.16;59.45;100616.53;4488100;32;19977;-87
2021/11/09 02:55:49;;;;;;;;;;;;;;;5.06;59.46;100614.78;4487521;32;19999;-87
2021/11/09 03:03:24;;;;;;;;;;;;;;;5.05;59.46;100613.94;4487969;32;20281;-86
2021/11/09 03:05:58;;;;;;;;;;;;;;;5.08;59.45;100616.53;4474957;32;20052;-87
2021/11/09 03:10:50;;;;;;;;;;;;;;;4.93;59.44;100622.47;4488676;32;20266;-87
2021/11/09 03:13:15;;;;;;;;;;;;;;;4.92;59.45;100625.91;4487693;32;19948;-88
2021/11/09 03:15:41;;;;;;;;;;;;;;;4.96;59.45;100626.78;4487772;32;20348;-87
2021/11/09 03:18:10;;;;;;;;;;;;;;;4.83;59.44;100630.16;4488897;31;19989;-87
2021/11/09 03:45:10;;;;;;;;;;;;;;;4.65;59.44;100650.69;4487408;32;20630;-87
2021/11/09 03:47:40;;;;;;;;;;;;;;;4.69;59.44;100637.81;4475376;32;19988;-87
2021/11/09 03:50:06;;;;;;;;;;;;;;;4.57;59.42;100645.47;4486604;32;19972;-87
2021/11/09 03:52:39;;;;;;;;;;;;;;;4.72;59.44;100645.56;4474216;32;19976;-87
2021/11/09 03:55:05;;;;;;;;;;;;;;;4.62;59.43;100648.94;4475187;32;20041;-87
2021/11/09 03:57:34;;;;;;;;;;;;;;;4.75;59.44;100655.06;4473416;32;19988;-85
2021/11/09 04:02:33;;;;;;;;;;;;;;;4.60;59.43;100663.53;4485827;32;19973;-85
2021/11/09 04:05:03;;;;;;;;;;;;;;;4.71;59.44;100664.47;4486976;32;19999;-87
2021/11/09 04:10:20;;;;;;;;;;;;;;;4.83;59.45;100661.13;4486942;32;20047;-86
2021/11/09 04:48:05;;;;;;;;;;;;;;;4.79;59.45;100688.59;4487089;31;20015;-86
2021/11/09 04:52:57;;;;;;;;;;;;;;;4.75;59.44;100698.91;4486157;32;20074;-86
2021/11/09 05:11:46;;;;;;;;;;;;;;;5.19;59.47;100719.78;4483938;32;20336;-84
2021/11/09 05:14:11;;;;;;;;;;;;;;;5.11;59.46;100724.06;4473372;32;19996;-85
2021/11/09 05:16:37;;;;;;;;;;;;;;;5.00;59.45;100725.72;4485090;32;20321;-87
2021/11/09 05:19:03;;;;;;;;;;;;;;;5.12;59.46;100730.94;4471629;32;20021;-86
2021/11/09 05:21:29;;;;;;;;;;;;;;;5.14;59.47;100730.09;4472050;32;20053;-87
2021/11/09 05:23:55;;;;;;;;;;;;;;;5.06;59.46;100733.50;4490917;32;19980;-86
2021/11/09 05:26:21;;;;;;;;;;;;;;;5.21;59.46;100733.59;4485434;32;19976;-86
2021/11/09 05:28:49;;;;;;;;;;;;;;;4.85;59.44;100744.53;4484688;32;20024;-86
2021/11/09 05:31:18;;;;;;;;;;;;;;;4.84;59.44;100742.81;4487035;32;20104;-87
2021/11/09 05:33:54;;;;;;;;;;;;;;;5.10;59.46;100749.00;4471485;32;19968;-87
2021/11/09 05:36:32;;;;;;;;;;;;;;;5.08;59.46;100752.44;4469990;32;20373;-86
2021/11/09 05:39:18;;;;;;;;;;;;;;;4.74;59.44;100761.66;4471861;32;20024;-87
2021/11/09 05:41:44;;;;;;;;;;;;;;;4.80;59.45;100766.84;4485994;32;19987;-85
2021/11/09 05:44:09;;;;;;;;;;;;;;;4.68;59.44;100770.19;4472441;32;20679;-88
2021/11/09 05:46:35;;;;;;;;;;;;;;;4.57;59.42;100764.09;4472244;32;19972;-87
2021/11/09 05:49:01;;;;;;;;;;;;;;;4.68;59.44;100782.22;4485596;32;19998;-88
2021/11/09 05:51:26;;;;;;;;;;;;;;;4.73;59.44;100780.53;4486969;32;20023;-87
2021/11/09 05:53:51;;;;;;;;;;;;;;;4.67;59.44;100783.06;4474517;32;19968;-87
2021/11/09 05:56:17;;;;;;;;;;;;;;;4.70;59.44;100795.97;4487124;32;23962;-86
2021/11/09 05:58:42;;;;;;;;;;;;;;;4.76;59.44;100804.66;4473584;32;20017;-86
2021/11/09 06:01:07;;;;;;;;;;;;;;;4.70;59.44;100816.63;4473740;32;25311;-87
2021/11/09 06:03:32;;;;;;;;;;;;;;;4.88;59.45;100811.62;4487484;32;19976;-87
2021/11/09 06:05:58;;;;;;;;;;;;;;;4.74;59.44;100819.25;4487432;32;19979;-87
2021/11/09 06:08:23;;;;;;;;;;;;;;;4.70;59.44;100811.47;4487174;32;19984;-87
2021/11/09 06:10:48;;;;;;;;;;;;;;;4.56;59.43;100824.25;4487090;32;19996;-87
2021/11/09 06:13:13;;;;;;;;;;;;;;;4.79;59.45;100827.03;4473463;32;24355;-87
2021/11/09 06:15:39;;;;;;;;;;;;;;;4.81;59.45;100844.25;4487082;32;20299;-86
2021/11/09 06:18:04;;;;;;;;;;;;;;;4.85;59.45;100840.84;4473516;32;20003;-87
2021/11/09 06:20:30;;;;;;;;;;;;;;;5.02;59.46;100846.16;4473838;32;19985;-88
2021/11/09 06:22:55;;;;;;;;;;;;;;;4.88;59.45;100855.47;4487285;32;19977;-86
2021/11/09 06:25:23;;;;;;;;;;;;;;;4.80;59.45;100859.72;4487627;32;19995;-87
2021/11/09 06:27:48;;;;;;;;;;;;;;;4.86;59.44;100868.38;4487900;32;19957;-86
2021/11/09 06:30:14;;;;;;;;;;;;;;;5.06;59.46;100865.97;4487724;32;19984;-86
2021/11/09 06:32:39;;;;;;;;;;;;;;;5.07;59.46;100875.44;4487663;31;19973;-87
2021/11/09 06:35:04;;;;;;;;;;;;;;;5.13;59.46;100884.94;4474579;32;20036;-86
2021/11/09 06:37:31;;;;;;;;;;;;;;;5.30;59.47;100887.66;4487518;32;20048;-87
2021/11/09 06:39:56;;;;;;;;;;;;;;;5.02;59.46;100894.31;4474100;32;20321;-87
2021/11/09 06:42:21;;;;;;;;;;;;;;;5.09;59.46;100896.09;4487374;32;20009;-87
2021/11/09 06:44:47;;;;;;;;;;;;;;;5.28;59.47;100892.81;4474376;32;20057;-87
2021/11/09 06:47:12;;;;;;;;;;;;;;;5.44;59.48;100902.41;4487698;32;19989;-88
2021/11/09 06:49:37;;;;;;;;;;;;;;;5.44;59.48;100912.72;4474209;32;20000;-87
2021/11/09 06:52:03;;;;;;;;;;;;;;;5.50;59.48;100914.50;4474136;32;19980;-87
2021/11/09 06:54:28;;;;;;;;;;;;;;;5.59;59.49;100916.25;4487455;32;20010;-88
2021/11/09 06:56:53;;;;;;;;;;;;;;;5.84;59.51;100924.19;4486777;32;19999;-87
2021/11/09 06:59:20;;;;;;;;;;;;;;;5.71;59.50;100921.53;4474358;32;19996;-88
2021/11/09 07:01:47;;;;;;;;;;;;;;;5.79;59.49;100933.62;4487083;32;19977;-87
2021/11/09 07:04:12;;;;;;;;;;;;;;;5.63;59.49;100936.09;4487823;32;20309;-88
2021/11/09 07:06:38;;;;;;;;;;;;;;;5.63;59.49;100936.09;4486153;32;20026;-87
2021/11/09 07:09:03;;;;;;;;;;;;;;;5.87;59.50;100938.84;4485352;32;28839;-88
2021/11/09 07:11:28;;;;;;;;;;;;;;;5.87;59.50;100944.00;4472566;32;20002;-86
2021/11/09 07:13:55;;;;;;;;;;;;;;;6.06;59.52;100950.19;4472854;32;20017;-86
2021/11/09 07:16:20;;;;;;;;;;;;;;;6.24;59.52;100945.13;4472819;32;19999;-86
2021/11/09 07:18:45;;;;;;;;;;;;;;;6.21;59.52;100952.84;4472729;32;19992;-86
2021/11/09 07:21:11;;;;;;;;;;;;;;;6.40;59.53;100958.97;4485627;32;20055;-85
2021/11/09 07:23:36;;;;;;;;;;;;;;;6.59;59.55;100962.47;4485717;32;19981;-87
2021/11/09 07:26:01;;;;;;;;;;;;;;;6.59;59.55;100972.81;4472198;32;20533;-86
2021/11/09 07:28:27;;;;;;;;;;;;;;;6.64;59.54;100971.16;4472411;32;20034;-86
2021/11/09 07:31:01;;;;;;;;;;;;;;;6.85;59.56;100971.19;4472363;32;19985;-87
2021/11/09 07:33:27;;;;;;;;;;;;;;;6.78;59.55;100977.22;4485601;32;19992;-86
2021/11/09 07:35:52;;;;;;;;;;;;;;;7.14;59.57;100991.12;4485581;32;19988;-86
2021/11/09 07:38:17;;;;;;;;;;;;;;;7.12;59.58;100987.66;4484832;32;27585;-87
2021/11/09 07:40:44;;;;;;;;;;;;;;;7.20;59.58;100980.78;4485605;32;20029;-86
2021/11/09 07:43:09;;;;;;;;;;;;;;;7.44;59.59;100979.94;4486431;32;19994;-86
2021/11/09 07:45:35;;;;;;;;;;;;;;;7.50;59.59;100993.75;4485888;32;20286;-86
2021/11/09 07:48:01;;;;;;;;;;;;;;;7.66;59.60;100999.78;4472651;32;20008;-86
2021/11/09 07:50:28;;;;;;;;;;;;;;;7.63;59.61;100997.22;4472856;32;20759;-86
2021/11/09 07:52:57;;;;;;;;;;;;;;;7.72;59.60;100999.78;4486163;32;20331;-87
2021/11/09 07:55:23;;;;;;;;;;;;;;;7.90;59.61;101004.97;4485700;32;20364;-86
2021/11/09 07:57:53;;;;;;;;;;;;;;;7.84;59.62;101014.47;4485292;32;20085;-84
2021/11/09 08:00:38;;;;;;;;;;;;;;;7.92;59.62;101012.75;4485190;32;19982;-86
2021/11/09 08:03:34;;;;;;;;;;;;;;;7.87;59.62;101023.13;4485077;32;19981;-86
2021/11/09 08:08:36;;;;;;;;;;;;;;;8.43;59.64;101022.19;4485116;32;20000;-86
2021/11/09 08:11:01;;;;;;;;;;;;;;;8.76;59.67;101018.62;4473317;32;20390;-87
2021/11/09 08:13:26;;;;;;;;;;;;;;;8.83;59.67;101022.91;4484050;32;20020;-86
2021/11/09 08:15:51;;;;;;;;;;;;;;;8.83;59.67;101027.22;4484610;32;20000;-86
2021/11/09 08:18:17;;;;;;;;;;;;;;;9.00;59.68;101025.41;4471144;32;26100;-86
2021/11/09 08:20:42;;;;;;;;;;;;;;;9.02;59.68;101022.81;4484632;32;19999;-86
2021/11/09 08:23:07;;;;;;;;;;;;;;;9.18;59.68;101032.22;4471480;32;19968;-86
2021/11/09 08:25:33;;;;;;;;;;;;;;;9.51;59.71;101038.97;4470984;32;19995;-86
2021/11/09 08:27:58;;;;;;;;;;;;;;;9.79;59.71;101034.41;4484347;32;20029;-86
2021/11/09 08:30:23;;;;;;;;;;;;;;;9.90;59.72;101035.16;4484588;32;19985;-86
2021/11/09 08:32:49;;;;;;;;;;;;;;;10.02;59.74;101037.66;4470934;32;20016;-87
2021/11/09 08:35:20;;;;;;;;;;;;;;;10.10;59.74;101046.25;4471068;32;19992;-86
2021/11/09 08:37:45;;;;;;;;;;;;;;;10.11;59.74;101053.19;4471588;32;20010;-85
2021/11/09 08:40:15;;;;;;;;;;;;;;;10.34;59.75;101055.59;4470967;32;22754;-86
2021/11/09 08:42:47;;;;;;;;;;;;;;;10.22;59.74;101052.28;4471685;32;20002;-86
2021/11/09 08:47:57;;;;;;;;;;;;;;;10.47;59.75;101065.91;4484770;32;19957;-86
2021/11/09 08:50:25;;;;;;;;;;;;;;;10.68;59.77;101070.87;4471456;32;19980;-86
2021/11/09 08:52:50;;;;;;;;;;;;;;;10.67;59.77;101079.56;4471128;32;19980;-86
2021/11/09 08:55:29;;;;;;;;;;;;;;;10.87;59.78;101079.31;4470707;32;20061;-85
2021/11/09 09:05:51;;;;;;;;;;;;;;;11.29;59.80;101088.31;4483967;32;20052;-86
2021/11/09 09:08:16;;;;;;;;;;;;;;;11.34;59.81;101092.59;4483820;32;20028;-86
2021/11/09 09:10:41;;;;;;;;;;;;;;;11.47;59.82;101085.47;4483256;32;31448;-86
2021/11/09 09:13:07;;;;;;;;;;;;;;;11.48;59.81;101091.56;4469755;32;34825;-86
2021/11/09 09:15:32;;;;;;;;;;;;;;;11.53;59.82;101087.97;4469687;32;25820;-86
2021/11/09 09:17:59;;;;;;;;;;;;;;;11.94;59.84;101092.59;4484826;31;19998;-85
2021/11/09 09:20:27;;;;;;;;;;;;;;;12.01;59.84;101098.59;4470549;32;19969;-86
2021/11/09 09:23:13;;;;;;;;;;;;;;;12.10;59.84;101093.22;4483626;32;19996;-85
2021/11/09 09:55:45;;;;;;;;;;;;;;;13.66;59.93;101124.13;4482843;32;20329;-86
2021/11/09 09:58:02;;;;;;;;;;;;;;;13.63;59.93;101130.28;4480857;32;19988;-85
2021/11/09 10:00:27;;;;;;;;;;;;;;;13.83;59.94;101128.09;4482799;32;20015;-85
2021/11/09 10:02:53;;;;;;;;;;;;;;;13.84;59.94;101121.09;4469748;32;20015;-85
2021/11/09 10:05:19;;;;;;;;;;;;;;;13.77;59.94;101119.53;4469666;32;20019;-84
2021/11/09 10:07:47;;;;;;;;;;;;;;;13.96;59.95;101122.53;4483063;32;19992;-85
2021/11/09 10:10:16;;;;;;;;;;;;;;;14.08;59.95;101119.62;4482993;32;19997;-86
2021/11/09 10:12:42;;;;;;;;;;;;;;;14.18;59.96;101115.88;4482506;32;20030;-86
2021/11/09 10:15:08;;;;;;;;;;;;;;;14.10;59.96;101125.69;4469749;32;20012;-86
2021/11/09 10:17:34;;;;;;;;;;;;;;;14.09;59.96;101130.06;4482513;32;19984;-86
2021/11/09 10:19:59;;;;;;;;;;;;;;;14.06;59.95;101124.91;4469081;32;20036;-85
2021/11/09 10:22:29;;;;;;;;;;;;;;;14.32;59.96;101118.16;4482201;32;19972;-85
2021/11/09 10:24:55;;;;;;;;;;;;;;;14.37;59.97;101129.38;4469136;32;19995;-85
2021/11/09 10:27:20;;;;;;;;;;;;;;;14.49;59.98;101128.25;4468869;32;19996;-85
2021/11/09 10:29:46;;;;;;;;;;;;;;;14.51;59.98;101119.44;4481941;32;20070;-85
2021/11/09 10:32:18;;;;;;;;;;;;;;;14.54;59.98;101129.00;4468995;32;20011;-86
2021/11/09 10:34:44;;;;;;;;;;;;;;;14.69;59.98;101139.06;4483536;31;19972;-85
2021/11/09 10:37:26;;;;;;;;;;;;;;;14.42;59.98;101137.97;4470053;32;20045;-85
2021/11/09 10:39:52;;;;;;;;;;;;;;;14.65;59.99;101137.41;4484315;32;20015;-86
2021/11/09 10:42:18;;;;;;;;;;;;;;;14.36;59.97;101146.00;4471285;32;20532;-85
2021/11/09 10:44:48;;;;;;;;;;;;;;;14.63;59.98;101144.44;4484462;32;19980;-85
2021/11/09 10:47:16;;;;;;;;;;;;;;;14.85;60.00;101142.13;4484306;32;19993;-85
2021/11/09 10:49:46;;;;;;;;;;;;;;;14.94;60.00;101145.37;4484249;32;20060;-85
2021/11/09 10:52:12;;;;;;;;;;;;;;;15.09;60.00;101140.56;4471074;32;20021;-85
2021/11/09 10:55:28;;;;;;;;;;;;;;;15.12;60.02;101135.22;4470963;32;19980;-85
2021/11/09 10:58:14;;;;;;;;;;;;;;;15.22;60.01;101140.19;4484168;32;20372;-84
2021/11/09 11:03:22;;;;;;;;;;;;;;;15.41;60.03;101145.75;4485617;31;20001;-84
2021/11/09 11:05:47;;;;;;;;;;;;;;;15.49;60.04;101145.53;4484317;32;19969;-85
2021/11/09 11:08:13;;;;;;;;;;;;;;;15.59;60.03;101145.22;4484277;32;20011;-85
2021/11/09 11:10:39;;;;;;;;;;;;;;;15.55;60.04;101150.59;4471016;32;19996;-85
2021/11/09 11:13:16;;;;;;;;;;;;;;;15.59;60.04;101152.22;4470972;32;20014;-85
2021/11/09 11:16:01;;;;;;;;;;;;;;;15.76;60.04;101147.34;4484198;32;19972;-85
2021/11/09 11:18:30;;;;;;;;;;;;;;;15.92;60.05;101139.84;4484022;32;20003;-85
2021/11/09 11:20:56;;;;;;;;;;;;;;;15.76;60.05;101143.84;4484278;32;20308;-85
2021/11/09 11:23:21;;;;;;;;;;;;;;;15.68;60.04;101153.75;4484115;32;20016;-85
2021/11/09 11:25:47;;;;;;;;;;;;;;;15.62;60.04;101153.03;4471006;32;20334;-85
2021/11/09 11:28:12;;;;;;;;;;;;;;;15.84;60.05;101152.34;4470165;32;23720;-85
2021/11/09 11:30:37;;;;;;;;;;;;;;;16.00;60.05;101150.97;4483729;32;21516;-85
2021/11/09 11:33:02;;;;;;;;;;;;;;;15.98;60.06;101151.91;4470709;32;19977;-85
2021/11/09 11:35:28;;;;;;;;;;;;;;;15.93;60.05;101141.56;4483931;32;19977;-86
2021/11/09 11:37:54;;;;;;;;;;;;;;;16.07;60.06;101147.22;4470860;32;20031;-85
2021/11/09 11:40:19;;;;;;;;;;;;;;;16.06;60.06;101150.75;4483764;32;19976;-85
2021/11/09 11:42:44;;;;;;;;;;;;;;;15.89;60.05;101148.69;4470832;32;19984;-85
2021/11/09 11:45:09;;;;;;;;;;;;;;;16.01;60.07;101152.66;4483866;32;20349;-85
2021/11/09 11:47:35;;;;;;;;;;;;;;;15.94;60.06;101154.66;4483660;32;20008;-85
2021/11/09 11:50:07;;;;;;;;;;;;;;;16.01;60.05;101151.81;4483518;32;20856;-85
2021/11/09 11:52:33;;;;;;;;;;;;;;;16.00;60.06;101152.72;4483886;32;20040;-85
2021/11/09 11:55:06;;;;;;;;;;;;;;;16.00;60.06;101157.97;4483943;32;20328;-85
2021/11/09 11:57:37;;;;;;;;;;;;;;;16.06;60.06;101157.78;4470723;32;19996;-85
2021/11/09 12:00:22;;;;;;;;;;;;;;;16.07;60.06;101156.84;4483679;32;19996;-85
2021/11/09 12:02:47;;;;;;;;;;;;;;;16.16;60.06;101148.69;4483729;32;20473;-85
2021/11/09 12:05:12;;;;;;;;;;;;;;;16.13;60.07;101154.06;4483022;32;31118;-86
2021/11/09 12:07:54;;;;;;;;;;;;;;;16.09;60.07;101153.31;4470032;32;19992;-85
2021/11/09 12:10:20;;;;;;;;;;;;;;;16.07;60.06;101155.09;4484074;32;20360;-85
2021/11/09 12:12:58;;;;;;;;;;;;;;;16.03;60.07;101165.75;4483840;32;19991;-86
2021/11/09 12:15:27;;;;;;;;;;;;;;;16.04;60.06;101165.69;4470502;32;19990;-85
2021/11/09 12:17:52;;;;;;;;;;;;;;;15.97;60.05;101166.81;4470469;32;19996;-85
2021/11/09 12:20:17;;;;;;;;;;;;;;;16.00;60.06;101165.84;4469893;32;29496;-86
2021/11/09 12:22:50;;;;;;;;;;;;;;;15.98;60.06;101165.91;4483690;32;20333;-86
2021/11/09 12:25:16;;;;;;;;;;;;;;;15.90;60.05;101175.81;4484931;31;20431;-85
2021/11/09 12:27:51;;;;;;;;;;;;;;;16.01;60.07;101175.44;4470510;32;19995;-86
2021/11/09 12:30:41;;;;;;;;;;;;;;;16.07;60.07;101173.47;4485217;31;20002;-85
2021/11/09 12:33:16;;;;;;;;;;;;;;;15.97;60.06;101174.69;4483442;32;19991;-86
2021/11/09 12:35:45;;;;;;;;;;;;;;;16.01;60.07;101176.31;4483650;32;19980;-85
2021/11/09 12:38:12;;;;;;;;;;;;;;;15.89;60.06;101177.56;4470579;32;20508;-86
2021/11/09 12:40:43;;;;;;;;;;;;;;;15.90;60.06;101179.28;4484938;31;20462;-85
2021/11/09 12:43:18;;;;;;;;;;;;;;;15.90;60.06;101181.06;4485023;32;20040;-85
2021/11/09 12:46:03;;;;;;;;;;;;;;;15.90;60.06;101176.66;4484758;31;19981;-85
2021/11/09 12:48:34;;;;;;;;;;;;;;;15.91;60.05;101181.00;4484855;31;20045;-85
2021/11/09 12:51:04;;;;;;;;;;;;;;;15.91;60.05;101182.78;4470515;32;19984;-85
2021/11/09 12:53:29;;;;;;;;;;;;;;;15.88;60.06;101183.72;4470423;32;20504;-85
2021/11/09 12:55:58;;;;;;;;;;;;;;;15.86;60.06;101187.31;4483446;32;20006;-85
2021/11/09 12:58:25;;;;;;;;;;;;;;;15.96;60.06;101192.22;4470393;32;19988;-85
2021/11/09 13:01:12;;;;;;;;;;;;;;;15.75;60.05;101189.37;4469836;32;20058;-86
2021/11/09 13:03:45;;;;;;;;;;;;;;;15.89;60.06;101202.97;4471194;32;19976;-86
2021/11/09 13:06:20;;;;;;;;;;;;;;;15.98;60.06;101197.41;4470906;32;20333;-85
2021/11/09 13:08:58;;;;;;;;;;;;;;;15.98;60.07;101201.81;4471402;32;20010;-86
2021/11/09 13:11:28;;;;;;;;;;;;;;;15.93;60.07;101201.97;4483365;32;20023;-85
2021/11/09 13:14:06;;;;;;;;;;;;;;;15.88;60.06;101206.50;4483437;32;19980;-85
2021/11/09 13:16:31;;;;;;;;;;;;;;;15.94;60.07;101209.78;4483229;32;20032;-85
2021/11/09 13:19:06;;;;;;;;;;;;;;;15.72;60.06;101210.50;4470071;32;19996;-86
2021/11/09 13:21:32;;;;;;;;;;;;;;;15.76;60.05;101209.50;4470243;32;20027;-85
2021/11/09 13:23:58;;;;;;;;;;;;;;;15.35;60.04;101220.25;4470123;32;19986;-86
2021/11/09 13:26:23;;;;;;;;;;;;;;;15.44;60.04;101213.03;4469240;32;33187;-85
2021/11/09 13:28:48;;;;;;;;;;;;;;;15.44;60.04;101221.78;4469828;32;20019;-86
2021/11/09 13:31:15;;;;;;;;;;;;;;;15.48;60.04;101223.41;4469284;32;27761;-85
2021/11/09 13:33:41;;;;;;;;;;;;;;;15.46;60.03;101229.59;4470003;32;20002;-85
2021/11/09 13:36:07;;;;;;;;;;;;;;;15.48;60.04;101231.25;4469784;32;19981;-86
2021/11/09 13:38:36;;;;;;;;;;;;;;;15.29;60.03;101232.69;4482994;32;20031;-86
2021/11/09 13:41:02;;;;;;;;;;;;;;;15.41;60.04;101228.88;4470098;32;20027;-86
2021/11/09 13:43:29;;;;;;;;;;;;;;;15.57;60.05;101241.50;4469316;32;20023;-86
2021/11/09 13:45:55;;;;;;;;;;;;;;;15.45;60.04;101238.38;4469590;32;19972;-85
2021/11/09 13:48:20;;;;;;;;;;;;;;;15.39;60.02;101243.81;4482852;32;19988;-85
2021/11/09 13:50:46;;;;;;;;;;;;;;;15.18;60.03;101248.72;4482784;32;20027;-86
2021/11/09 13:53:11;;;;;;;;;;;;;;;15.33;60.03;101244.81;4482855;32;20039;-86
2021/11/09 13:55:37;;;;;;;;;;;;;;;15.33;60.03;101257.94;4482819;32;19996;-86
2021/11/09 13:58:02;;;;;;;;;;;;;;;15.35;60.03;101261.38;4469677;32;19984;-86
2021/11/09 14:00:32;;;;;;;;;;;;;;;15.23;60.02;101264.34;4482743;32;19989;-86
2021/11/09 14:03:14;;;;;;;;;;;;;;;15.20;60.02;101267.91;4482816;32;19987;-85
2021/11/09 14:14:23;;;;;;;;;;;;;;;15.08;60.01;101268.22;4484886;32;19987;-85
2021/11/09 14:16:53;;;;;;;;;;;;;;;14.96;60.01;101266.78;4484745;32;20098;-86
2021/11/09 14:19:33;;;;;;;;;;;;;;;14.86;60.00;101272.28;4484889;32;20355;-85
2021/11/09 14:21:58;;;;;;;;;;;;;;;14.82;60.00;101282.00;4484960;32;19984;-85
2021/11/09 14:24:26;;;;;;;;;;;;;;;14.82;60.00;101278.53;4484848;32;20361;-85
2021/11/09 14:27:13;;;;;;;;;;;;;;;14.76;60.00;101284.78;4471599;32;19980;-85
2021/11/09 14:29:39;;;;;;;;;;;;;;;14.71;60.00;101276.19;4486083;31;20011;-86
2021/11/09 14:32:18;;;;;;;;;;;;;;;14.68;60.00;101281.50;4471635;32;19992;-85
2021/11/09 14:35:04;;;;;;;;;;;;;;;14.61;59.99;101278.16;4471666;32;19976;-86
2021/11/09 14:37:36;;;;;;;;;;;;;;;14.53;59.99;101292.34;4484650;32;19998;-86
2021/11/09 14:40:07;;;;;;;;;;;;;;;14.47;59.98;101295.13;4472258;32;20014;-85
2021/11/09 14:43:16;;;;;;;;;;;;;;;14.45;59.98;101297.78;4471379;32;20011;-86
2021/11/09 14:45:38;;;;;;;;;;;;;;;14.35;59.98;101306.69;4480530;32;19957;-85
2021/11/09 14:48:13;;;;;;;;;;;;;;;14.29;59.98;101301.59;4484724;32;19989;-86
2021/11/09 14:50:50;;;;;;;;;;;;;;;14.21;59.97;101312.25;4484550;32;20044;-85
2021/11/09 14:53:21;;;;;;;;;;;;;;;14.11;59.97;101315.94;4484575;32;20337;-86
2021/11/09 14:55:49;;;;;;;;;;;;;;;14.07;59.96;101309.91;4471625;32;19972;-86
2021/11/09 14:58:23;;;;;;;;;;;;;;;13.98;59.96;101310.12;4484730;32;19987;-85
2021/11/09 15:00:49;;;;;;;;;;;;;;;13.81;59.95;101314.84;4486060;32;19977;-86
2021/11/09 15:03:14;;;;;;;;;;;;;;;13.73;59.95;101322.84;4471346;32;20011;-85
2021/11/09 15:05:39;;;;;;;;;;;;;;;13.70;59.94;101322.88;4471066;32;19988;-86
2021/11/09 15:08:27;;;;;;;;;;;;;;;13.57;59.94;101324.03;4484351;32;19969;-85
2021/11/09 15:29:35;;;;;;;;;;;;;;;12.79;59.89;101332.37;4484216;32;20540;-85
2021/11/09 15:32:10;;;;;;;;;;;;;;;12.70;59.89;101338.56;4472593;32;20318;-85
2021/11/09 15:34:51;;;;;;;;;;;;;;;12.62;59.88;101340.47;4484597;32;20456;-85